Time;durP1;ratioP1;P1;durP2;ratioP2;P2;SDS_P1;SDS_P2;PMS_P1;PMS_P2;Temp;Humidity;BMP_temperature;BMP_pressure;BME280_temperature;BME280_humidity;BME280_pressure;Samples;Min_cycle;Max_cycle;Signal;HPM_P1;HPM_P2
2021/07/03 00:01:30;;;;;;;6.63;5.13;;;;;;;;;;4946453;28;20543;-85
2021/07/03 00:03:57;;;;;;;6.40;5.70;;;;;;;;;;4944686;28;20040;-83
2021/07/03 00:06:23;;;;;;;6.28;5.25;;;;;;;;;;4949215;28;20133;-84
2021/07/03 00:08:52;;;;;;;5.78;5.03;;;;;;;;;;4949451;28;20055;-83
2021/07/03 00:11:18;;;;;;;7.07;5.43;;;;;;;;;;4956554;28;20074;-83
2021/07/03 00:13:48;;;;;;;6.60;5.25;;;;;;;;;;4947945;28;20058;-83
2021/07/03 00:16:14;;;;;;;8.07;5.50;;;;;;;;;;4944350;28;20052;-83
2021/07/03 00:18:40;;;;;;;6.10;5.47;;;;;;;;;;4951554;28;20091;-84
2021/07/03 00:21:07;;;;;;;7.45;5.45;;;;;;;;;;4952940;28;20038;-84
2021/07/03 00:23:33;;;;;;;6.82;5.38;;;;;;;;;;4949480;28;20078;-84
2021/07/03 00:26:00;;;;;;;5.97;5.28;;;;;;;;;;4947380;28;20449;-83
2021/07/03 00:28:26;;;;;;;9.02;6.05;;;;;;;;;;4950295;28;20067;-84
2021/07/03 00:30:52;;;;;;;7.40;5.93;;;;;;;;;;4945798;28;20071;-84
2021/07/03 00:33:19;;;;;;;6.20;5.60;;;;;;;;;;4948932;28;20519;-85
2021/07/03 00:35:48;;;;;;;6.35;5.75;;;;;;;;;;4965960;28;20036;-85
2021/07/03 00:38:14;;;;;;;6.88;6.18;;;;;;;;;;4949236;28;20059;-86
2021/07/03 00:40:41;;;;;;;7.70;6.07;;;;;;;;;;4950515;28;20062;-85
2021/07/03 00:43:07;;;;;;;7.10;5.82;;;;;;;;;;4947419;28;20531;-84
2021/07/03 00:45:34;;;;;;;7.60;6.13;;;;;;;;;;4943433;28;20070;-85
2021/07/03 00:48:00;;;;;;;6.18;5.55;;;;;;;;;;4947881;28;20067;-83
2021/07/03 00:50:27;;;;;;;6.82;5.80;;;;;;;;;;4948785;28;20062;-84
2021/07/03 00:52:53;;;;;;;6.65;5.95;;;;;;;;;;4947969;28;20071;-84
2021/07/03 00:55:20;;;;;;;6.68;6.03;;;;;;;;;;4928474;29;20040;-85
2021/07/03 00:57:46;;;;;;;6.05;5.40;;;;;;;;;;4941252;28;20055;-84
2021/07/03 01:00:14;;;;;;;8.32;6.10;;;;;;;;;;4934576;28;20059;-84
2021/07/03 01:02:41;;;;;;;8.63;6.75;;;;;;;;;;4952204;28;20514;-84
2021/07/03 01:05:07;;;;;;;7.53;6.18;;;;;;;;;;4946253;28;20082;-86
2021/07/03 01:07:37;;;;;;;6.47;5.88;;;;;;;;;;4946248;28;20083;-84
2021/07/03 01:10:07;;;;;;;6.63;5.65;;;;;;;;;;4945673;28;20071;-85
2021/07/03 01:12:33;;;;;;;6.07;5.43;;;;;;;;;;4958121;28;20118;-85
2021/07/03 01:14:59;;;;;;;6.75;6.13;;;;;;;;;;4940262;28;20125;-85
2021/07/03 01:17:31;;;;;;;6.22;5.60;;;;;;;;;;4942318;28;20134;-84
2021/07/03 01:19:58;;;;;;;6.82;6.18;;;;;;;;;;4936757;28;20145;-84
2021/07/03 01:22:27;;;;;;;9.00;5.95;;;;;;;;;;4941814;28;20122;-85
2021/07/03 01:24:56;;;;;;;7.28;5.78;;;;;;;;;;4944114;28;20035;-86
2021/07/03 01:27:23;;;;;;;7.75;5.70;;;;;;;;;;4950379;28;20070;-84
2021/07/03 01:29:49;;;;;;;7.72;5.53;;;;;;;;;;4946090;28;20055;-86
2021/07/03 01:32:16;;;;;;;6.72;6.05;;;;;;;;;;4942203;28;20128;-83
2021/07/03 01:34:44;;;;;;;7.85;6.03;;;;;;;;;;4946229;28;20036;-84
2021/07/03 01:37:11;;;;;;;6.80;6.13;;;;;;;;;;4954916;28;21441;-83
2021/07/03 01:39:39;;;;;;;7.97;5.97;;;;;;;;;;4951336;28;20449;-83
2021/07/03 01:42:07;;;;;;;6.40;5.75;;;;;;;;;;4964815;28;20040;-84
2021/07/03 01:44:34;;;;;;;8.35;6.35;;;;;;;;;;4946450;28;20055;-85
2021/07/03 01:47:01;;;;;;;6.70;5.85;;;;;;;;;;4947148;28;20445;-85
2021/07/03 01:49:28;;;;;;;8.38;6.93;;;;;;;;;;4948250;28;20063;-84
2021/07/03 01:51:55;;;;;;;6.80;6.10;;;;;;;;;;4948629;28;20090;-85
2021/07/03 01:54:22;;;;;;;6.88;6.03;;;;;;;;;;4948898;28;20066;-84
2021/07/03 01:56:57;;;;;;;6.75;6.05;;;;;;;;;;4945115;28;20070;-86
2021/07/03 01:59:27;;;;;;;6.90;6.03;;;;;;;;;;4947557;28;20055;-85
2021/07/03 02:01:55;;;;;;;8.60;6.50;;;;;;;;;;4948279;28;20028;-85
2021/07/03 02:04:22;;;;;;;6.85;5.90;;;;;;;;;;4948054;28;20062;-84
2021/07/03 02:06:48;;;;;;;7.40;6.10;;;;;;;;;;4959820;28;20074;-84
2021/07/03 02:09:16;;;;;;;6.72;6.03;;;;;;;;;;4933787;28;20059;-85
2021/07/03 02:11:42;;;;;;;7.20;6.30;;;;;;;;;;4946905;28;20582;-85
2021/07/03 02:14:09;;;;;;;5.90;5.30;;;;;;;;;;4949332;28;20133;-84
2021/07/03 02:16:36;;;;;;;6.22;5.10;;;;;;;;;;4947696;28;20114;-84
2021/07/03 02:19:02;;;;;;;6.30;5.70;;;;;;;;;;4958289;28;20071;-84
2021/07/03 02:21:29;;;;;;;7.35;5.82;;;;;;;;;;4945488;28;20512;-84
2021/07/03 02:23:55;;;;;;;7.60;5.88;;;;;;;;;;4947214;28;20059;-85
2021/07/03 02:26:22;;;;;;;7.70;5.55;;;;;;;;;;4949210;28;20066;-85
2021/07/03 02:28:49;;;;;;;7.53;5.63;;;;;;;;;;4944654;28;20082;-84
2021/07/03 02:31:16;;;;;;;6.32;5.50;;;;;;;;;;4940901;28;20059;-85
2021/07/03 02:33:43;;;;;;;7.30;5.63;;;;;;;;;;4945213;28;20114;-88
2021/07/03 02:36:09;;;;;;;6.72;5.82;;;;;;;;;;4963884;28;20063;-83
2021/07/03 02:38:36;;;;;;;6.13;5.53;;;;;;;;;;4942285;28;20059;-85
2021/07/03 02:41:02;;;;;;;7.30;5.55;;;;;;;;;;4946431;28;20109;-84
2021/07/03 02:43:29;;;;;;;6.07;5.40;;;;;;;;;;4948750;28;20066;-84
2021/07/03 02:45:55;;;;;;;5.90;5.30;;;;;;;;;;4944399;28;20078;-85
2021/07/03 02:48:22;;;;;;;7.55;5.72;;;;;;;;;;4945646;28;20095;-85
2021/07/03 02:50:48;;;;;;;6.32;5.18;;;;;;;;;;4939238;28;20790;-85
2021/07/03 02:53:15;;;;;;;6.82;5.43;;;;;;;;;;4946497;28;20075;-85
2021/07/03 02:55:41;;;;;;;5.80;5.15;;;;;;;;;;4944605;28;20055;-85
2021/07/03 02:58:07;;;;;;;6.38;5.78;;;;;;;;;;4946913;28;20048;-85
2021/07/03 03:00:34;;;;;;;6.05;5.45;;;;;;;;;;4949707;28;20062;-85
2021/07/03 03:03:00;;;;;;;6.18;5.57;;;;;;;;;;4951312;28;20036;-83
2021/07/03 03:05:27;;;;;;;6.97;5.40;;;;;;;;;;4945126;28;20059;-84
2021/07/03 03:07:53;;;;;;;6.70;5.00;;;;;;;;;;4945659;28;20497;-84
2021/07/03 03:10:20;;;;;;;5.97;5.38;;;;;;;;;;4953588;28;20388;-85
2021/07/03 03:12:47;;;;;;;5.53;5.03;;;;;;;;;;4945973;28;20055;-84
2021/07/03 03:15:14;;;;;;;7.90;6.18;;;;;;;;;;4944698;28;20098;-84
2021/07/03 03:17:41;;;;;;;6.85;5.55;;;;;;;;;;4951227;28;20059;-86
2021/07/03 03:20:09;;;;;;;6.70;5.45;;;;;;;;;;4950071;28;20492;-84
2021/07/03 03:22:35;;;;;;;8.75;5.55;;;;;;;;;;4950196;28;20058;-84
2021/07/03 03:25:02;;;;;;;6.82;5.53;;;;;;;;;;4950833;28;20067;-84
2021/07/03 03:27:28;;;;;;;6.63;5.65;;;;;;;;;;4950549;28;20070;-85
2021/07/03 03:29:55;;;;;;;7.72;5.40;;;;;;;;;;4944491;28;20067;-85
2021/07/03 03:32:21;;;;;;;5.53;4.85;;;;;;;;;;4949432;28;20058;-85
2021/07/03 03:34:47;;;;;;;6.47;5.82;;;;;;;;;;4949172;28;20075;-84
2021/07/03 03:37:14;;;;;;;6.00;5.32;;;;;;;;;;4943742;28;20153;-85
2021/07/03 03:39:40;;;;;;;5.57;5.07;;;;;;;;;;4949081;28;20070;-85
2021/07/03 03:42:07;;;;;;;6.13;5.20;;;;;;;;;;4949724;28;20067;-85
2021/07/03 03:44:33;;;;;;;5.75;5.25;;;;;;;;;;4951568;28;20043;-85
2021/07/03 03:47:00;;;;;;;5.65;5.05;;;;;;;;;;4948416;28;20094;-83
2021/07/03 03:49:26;;;;;;;6.05;4.85;;;;;;;;;;4951621;28;20519;-84
2021/07/03 03:51:53;;;;;;;5.90;5.30;;;;;;;;;;4940596;28;20086;-84
2021/07/03 03:54:21;;;;;;;5.20;4.70;;;;;;;;;;4950701;28;20070;-84
2021/07/03 03:57:20;;;;;;;6.75;5.00;;;;;;;;;;4943166;28;20451;-83
2021/07/03 03:59:34;;;;;;;6.50;4.65;;;;;;;;;;4947939;28;20063;-84
2021/07/03 04:02:01;;;;;;;5.93;5.32;;;;;;;;;;4940799;28;20118;-85
2021/07/03 04:04:28;;;;;;;6.00;4.55;;;;;;;;;;4944172;28;20051;-85
2021/07/03 04:06:54;;;;;;;6.03;5.05;;;;;;;;;;4940903;28;20083;-84
2021/07/03 04:09:20;;;;;;;5.88;4.75;;;;;;;;;;4964903;28;20066;-85
2021/07/03 04:11:47;;;;;;;6.22;4.70;;;;;;;;;;4943001;28;20076;-84
2021/07/03 04:14:13;;;;;;;7.05;5.10;;;;;;;;;;4940703;28;20062;-83
2021/07/03 04:16:40;;;;;;;7.30;4.97;;;;;;;;;;4917500;28;20043;-84
2021/07/03 04:19:06;;;;;;;7.72;4.85;;;;;;;;;;4947287;28;20074;-84
2021/07/03 04:21:32;;;;;;;6.43;5.10;;;;;;;;;;4947989;28;20066;-85
2021/07/03 04:23:59;;;;;;;6.15;4.93;;;;;;;;;;4953768;28;20043;-84
2021/07/03 04:26:25;;;;;;;6.22;4.93;;;;;;;;;;4948147;28;20058;-85
2021/07/03 04:28:52;;;;;;;5.90;5.20;;;;;;;;;;4942704;28;20110;-83
2021/07/03 04:31:18;;;;;;;7.47;5.25;;;;;;;;;;4947893;28;20468;-84
2021/07/03 04:33:44;;;;;;;5.50;4.90;;;;;;;;;;4941372;28;20405;-84
2021/07/03 04:36:11;;;;;;;5.45;4.95;;;;;;;;;;4940115;28;20427;-84
2021/07/03 04:38:37;;;;;;;6.80;5.15;;;;;;;;;;4947648;28;20453;-84
2021/07/03 04:41:04;;;;;;;8.05;5.30;;;;;;;;;;4940717;28;20066;-85
2021/07/03 04:43:31;;;;;;;7.72;5.05;;;;;;;;;;4939480;28;20066;-84
2021/07/03 04:45:57;;;;;;;5.82;5.22;;;;;;;;;;4944802;28;20065;-84
2021/07/03 04:48:23;;;;;;;5.40;4.40;;;;;;;;;;4948812;28;20078;-84
2021/07/03 04:50:50;;;;;;;7.35;5.57;;;;;;;;;;4948878;28;20036;-86
2021/07/03 04:53:16;;;;;;;6.57;5.13;;;;;;;;;;4909874;28;1138087;-84
2021/07/03 04:55:43;;;;;;;5.63;4.53;;;;;;;;;;4943644;28;20063;-86
2021/07/03 04:58:09;;;;;;;6.75;4.93;;;;;;;;;;4947896;28;20065;-84
2021/07/03 05:00:35;;;;;;;5.47;4.75;;;;;;;;;;4948675;28;20085;-86
2021/07/03 05:03:03;;;;;;;5.93;4.82;;;;;;;;;;4947268;28;20075;-85
2021/07/03 05:05:29;;;;;;;5.30;4.50;;;;;;;;;;4943061;28;20087;-85
2021/07/03 05:07:55;;;;;;;6.07;5.00;;;;;;;;;;4948010;28;20452;-85
2021/07/03 05:10:22;;;;;;;5.75;4.35;;;;;;;;;;4948278;28;20059;-85
2021/07/03 05:12:48;;;;;;;11.80;9.48;;;;;;;;;;4945298;28;20137;-84
2021/07/03 05:15:14;;;;;;;6.18;5.32;;;;;;;;;;4943890;28;20055;-82
2021/07/03 05:17:41;;;;;;;6.43;4.78;;;;;;;;;;4940840;28;20538;-84
2021/07/03 05:20:08;;;;;;;6.82;4.93;;;;;;;;;;4945492;28;20054;-84
2021/07/03 05:22:34;;;;;;;5.30;4.78;;;;;;;;;;4947691;28;20066;-84
2021/07/03 05:25:01;;;;;;;5.53;4.10;;;;;;;;;;4945075;28;20031;-85
2021/07/03 05:27:27;;;;;;;5.60;4.97;;;;;;;;;;4946522;28;20483;-84
2021/07/03 05:29:53;;;;;;;5.63;4.60;;;;;;;;;;4941315;28;20071;-83
2021/07/03 05:32:20;;;;;;;6.22;4.80;;;;;;;;;;4917078;29;20152;-85
2021/07/03 05:34:46;;;;;;;7.22;4.70;;;;;;;;;;4939842;28;20488;-85
2021/07/03 05:37:13;;;;;;;5.20;4.70;;;;;;;;;;4940278;28;20055;-87
2021/07/03 05:39:39;;;;;;;5.35;4.85;;;;;;;;;;4945843;28;20059;-85
2021/07/03 05:42:05;;;;;;;7.03;5.00;;;;;;;;;;4952487;28;20944;-86
2021/07/03 05:44:33;;;;;;;6.13;5.05;;;;;;;;;;4936822;28;20089;-86
2021/07/03 05:46:59;;;;;;;5.40;4.82;;;;;;;;;;4937228;28;20057;-91
2021/07/03 05:49:26;;;;;;;5.13;4.60;;;;;;;;;;4937253;28;20078;-88
2021/07/03 05:51:52;;;;;;;5.55;4.93;;;;;;;;;;4944882;28;20071;-86
2021/07/03 05:54:19;;;;;;;5.78;4.60;;;;;;;;;;4946543;28;20499;-92
2021/07/03 05:56:45;;;;;;;8.20;4.88;;;;;;;;;;4943559;28;20047;-90
2021/07/03 05:59:12;;;;;;;6.50;4.72;;;;;;;;;;4938205;28;20059;-88
2021/07/03 06:01:39;;;;;;;5.60;5.00;;;;;;;;;;4950351;28;20541;-87
2021/07/03 06:04:05;;;;;;;6.32;4.85;;;;;;;;;;4940574;28;20059;-88
2021/07/03 06:06:32;;;;;;;5.63;4.95;;;;;;;;;;4936916;28;20032;-89
2021/07/03 06:08:59;;;;;;;5.75;5.18;;;;;;;;;;4938314;28;20098;-88
2021/07/03 06:11:25;;;;;;;6.53;5.28;;;;;;;;;;4939574;28;20066;-89
2021/07/03 06:13:54;;;;;;;6.53;5.18;;;;;;;;;;4938080;28;20039;-89
2021/07/03 06:16:20;;;;;;;6.70;5.25;;;;;;;;;;4937063;28;20063;-89
2021/07/03 06:18:47;;;;;;;6.35;5.15;;;;;;;;;;4944443;28;20055;-87
2021/07/03 06:21:13;;;;;;;7.22;5.25;;;;;;;;;;4937788;28;20055;-88
2021/07/03 06:23:39;;;;;;;7.57;5.78;;;;;;;;;;4937038;28;20095;-88
2021/07/03 06:26:06;;;;;;;6.35;5.30;;;;;;;;;;4943725;28;22715;-86
2021/07/03 06:28:32;;;;;;;6.95;5.75;;;;;;;;;;4949677;28;20067;-89
2021/07/03 06:30:59;;;;;;;7.60;5.78;;;;;;;;;;4937237;28;20610;-86
2021/07/03 06:33:26;;;;;;;6.72;5.10;;;;;;;;;;4946675;28;20066;-87
2021/07/03 06:35:53;;;;;;;8.98;6.00;;;;;;;;;;4940128;28;20082;-87
2021/07/03 06:38:19;;;;;;;6.28;5.13;;;;;;;;;;4935789;28;20622;-86
2021/07/03 06:40:46;;;;;;;8.65;5.88;;;;;;;;;;4942321;28;20062;-87
2021/07/03 06:43:12;;;;;;;7.50;5.75;;;;;;;;;;4939236;28;20078;-87
2021/07/03 06:45:39;;;;;;;6.28;5.32;;;;;;;;;;4936918;28;20090;-87
2021/07/03 06:48:05;;;;;;;6.75;5.43;;;;;;;;;;4956735;28;20701;-86
2021/07/03 06:50:32;;;;;;;6.55;5.68;;;;;;;;;;4943408;28;20066;-87
2021/07/03 06:52:58;;;;;;;8.73;6.07;;;;;;;;;;4942793;28;20035;-87
2021/07/03 06:55:27;;;;;;;7.13;5.70;;;;;;;;;;4953241;28;20066;-88
2021/07/03 06:57:54;;;;;;;8.05;6.18;;;;;;;;;;4944269;28;20613;-87
2021/07/03 07:00:20;;;;;;;7.93;5.70;;;;;;;;;;4944463;28;20051;-88
2021/07/03 07:02:47;;;;;;;8.68;5.50;;;;;;;;;;4949807;28;20059;-86
2021/07/03 07:05:14;;;;;;;8.45;6.22;;;;;;;;;;4962123;28;20036;-88
2021/07/03 07:07:40;;;;;;;6.38;5.72;;;;;;;;;;4954260;28;20703;-87
2021/07/03 07:10:07;;;;;;;9.82;6.28;;;;;;;;;;4949578;28;20067;-88
2021/07/03 07:12:34;;;;;;;7.95;6.38;;;;;;;;;;4950403;28;20055;-88
2021/07/03 07:15:00;;;;;;;7.05;6.25;;;;;;;;;;4945233;28;20063;-88
2021/07/03 07:17:26;;;;;;;6.82;6.13;;;;;;;;;;4940305;28;20064;-87
2021/07/03 07:19:53;;;;;;;8.10;6.65;;;;;;;;;;4946521;28;20077;-86
2021/07/03 07:22:19;;;;;;;7.93;6.43;;;;;;;;;;4949006;28;20651;-87
2021/07/03 07:24:46;;;;;;;7.53;6.63;;;;;;;;;;4951398;28;20459;-87
2021/07/03 07:27:12;;;;;;;8.82;6.55;;;;;;;;;;4943813;28;20051;-86
2021/07/03 07:29:38;;;;;;;8.90;7.20;;;;;;;;;;4951721;28;20063;-86
2021/07/03 07:32:05;;;;;;;7.45;6.65;;;;;;;;;;4950753;28;20063;-88
2021/07/03 07:34:31;;;;;;;7.47;6.65;;;;;;;;;;4945136;28;20058;-87
2021/07/03 07:36:58;;;;;;;8.43;6.90;;;;;;;;;;4938586;28;20716;-89
2021/07/03 07:39:24;;;;;;;7.70;6.88;;;;;;;;;;4949521;28;20910;-86
2021/07/03 07:41:51;;;;;;;9.32;7.05;;;;;;;;;;4944480;28;20102;-87
2021/07/03 07:44:17;;;;;;;8.30;7.07;;;;;;;;;;4950154;28;20110;-86
2021/07/03 07:46:43;;;;;;;8.93;6.90;;;;;;;;;;4955930;28;20059;-86
2021/07/03 07:49:10;;;;;;;7.47;6.72;;;;;;;;;;4946073;28;20074;-89
2021/07/03 07:51:36;;;;;;;8.23;6.70;;;;;;;;;;4949591;28;20134;-86
2021/07/03 07:54:04;;;;;;;8.07;7.07;;;;;;;;;;4944625;28;20503;-87
2021/07/03 07:56:30;;;;;;;7.80;6.55;;;;;;;;;;4942821;28;20063;-87
2021/07/03 07:58:57;;;;;;;8.35;6.20;;;;;;;;;;4942114;28;20091;-85
2021/07/03 08:01:24;;;;;;;8.50;7.20;;;;;;;;;;4938897;28;20047;-87
2021/07/03 08:03:50;;;;;;;8.18;6.93;;;;;;;;;;4943868;28;20040;-87
2021/07/03 08:06:17;;;;;;;8.85;7.15;;;;;;;;;;4944759;28;20066;-87
2021/07/03 08:08:43;;;;;;;9.68;7.15;;;;;;;;;;4945527;28;20173;-87
2021/07/03 08:11:10;;;;;;;8.48;7.15;;;;;;;;;;4945899;28;20063;-88
2021/07/03 08:13:36;;;;;;;9.57;7.43;;;;;;;;;;4943131;28;20126;-86
2021/07/03 08:16:03;;;;;;;7.28;6.32;;;;;;;;;;4943710;28;20091;-86
2021/07/03 08:18:29;;;;;;;7.22;6.30;;;;;;;;;;4943946;28;20145;-88
2021/07/03 08:20:56;;;;;;;8.45;7.05;;;;;;;;;;4941468;28;20542;-86
2021/07/03 08:23:22;;;;;;;11.45;7.40;;;;;;;;;;4945668;28;20066;-87
2021/07/03 08:25:49;;;;;;;7.93;7.10;;;;;;;;;;4952445;28;20062;-86
2021/07/03 08:28:16;;;;;;;8.50;6.25;;;;;;;;;;4941038;28;20095;-85
2021/07/03 08:30:43;;;;;;;10.93;7.85;;;;;;;;;;4959009;28;20171;-78
2021/07/03 08:33:09;;;;;;;9.43;7.07;;;;;;;;;;4944749;28;20051;-79
2021/07/03 08:35:35;;;;;;;9.18;6.55;;;;;;;;;;4936928;28;20043;-79
2021/07/03 08:38:02;;;;;;;8.43;6.70;;;;;;;;;;4938597;28;20063;-79
2021/07/03 08:40:31;;;;;;;11.25;7.10;;;;;;;;;;4953840;28;20081;-79
2021/07/03 08:42:57;;;;;;;10.00;7.15;;;;;;;;;;4938815;28;20059;-78
2021/07/03 08:45:24;;;;;;;9.15;7.13;;;;;;;;;;4944523;28;20070;-78
2021/07/03 08:47:50;;;;;;;9.20;7.85;;;;;;;;;;4942886;28;20464;-79
2021/07/03 08:50:19;;;;;;;9.68;8.30;;;;;;;;;;4933165;28;20142;-79
2021/07/03 08:52:45;;;;;;;10.27;8.48;;;;;;;;;;4933705;28;20071;-78
2021/07/03 08:55:17;;;;;;;10.30;8.70;;;;;;;;;;4934289;28;21376;-78
2021/07/03 08:57:54;;;;;;;11.20;7.85;;;;;;;;;;4937359;28;20063;-78
2021/07/03 09:00:21;;;;;;;13.05;9.52;;;;;;;;;;4937155;28;20039;-79
2021/07/03 09:02:48;;;;;;;11.38;8.93;;;;;;;;;;4940002;28;20491;-79
2021/07/03 09:05:19;;;;;;;14.23;9.82;;;;;;;;;;4944253;28;20492;-78
2021/07/03 09:07:46;;;;;;;12.60;11.13;;;;;;;;;;4927632;29;20133;-79
2021/07/03 09:10:12;;;;;;;12.32;8.77;;;;;;;;;;4946335;28;21736;-79
2021/07/03 09:12:39;;;;;;;10.77;8.98;;;;;;;;;;4948254;28;20067;-79
2021/07/03 09:15:09;;;;;;;11.95;8.90;;;;;;;;;;4943057;28;20039;-79
2021/07/03 09:17:45;;;;;;;10.10;9.07;;;;;;;;;;4948302;28;20049;-80
2021/07/03 09:20:12;;;;;;;11.13;9.50;;;;;;;;;;4944869;28;20508;-79
2021/07/03 09:22:38;;;;;;;12.02;8.75;;;;;;;;;;4948494;28;20503;-79
2021/07/03 09:25:21;;;;;;;12.30;9.90;;;;;;;;;;4946791;28;20448;-78
2021/07/03 09:27:47;;;;;;;12.57;9.40;;;;;;;;;;4948916;28;20054;-79
2021/07/03 09:30:20;;;;;;;13.07;10.13;;;;;;;;;;4949400;28;20138;-79
2021/07/03 09:32:50;;;;;;;14.55;10.82;;;;;;;;;;4941258;28;20428;-78
2021/07/03 09:35:17;;;;;;;16.85;11.13;;;;;;;;;;4946938;28;20047;-78
2021/07/03 09:37:43;;;;;;;15.48;10.32;;;;;;;;;;4944095;28;20687;-77
2021/07/03 09:40:10;;;;;;;13.25;10.32;;;;;;;;;;4944212;28;20063;-77
2021/07/03 09:42:37;;;;;;;12.35;10.00;;;;;;;;;;4948039;28;20066;-79
2021/07/03 09:45:05;;;;;;;13.90;11.23;;;;;;;;;;4943463;28;20129;-78
2021/07/03 09:47:31;;;;;;;14.90;11.15;;;;;;;;;;4936172;28;20059;-79
2021/07/03 09:50:14;;;;;;;14.13;10.75;;;;;;;;;;4941097;28;20586;-77
2021/07/03 09:52:41;;;;;;;14.05;10.77;;;;;;;;;;4934865;28;20086;-78
2021/07/03 09:55:08;;;;;;;18.38;12.02;;;;;;;;;;4937275;28;20550;-78
2021/07/03 09:57:39;;;;;;;16.98;11.45;;;;;;;;;;4943054;28;20067;-78
2021/07/03 10:00:09;;;;;;;15.30;11.40;;;;;;;;;;4940546;28;20594;-79
2021/07/03 10:02:35;;;;;;;17.70;11.63;;;;;;;;;;4947157;28;20087;-78
2021/07/03 10:05:02;;;;;;;14.50;10.63;;;;;;;;;;4945311;28;20618;-79
2021/07/03 10:07:35;;;;;;;14.13;10.25;;;;;;;;;;4945421;28;20133;-80
2021/07/03 10:10:06;;;;;;;13.35;9.48;;;;;;;;;;4943032;28;20052;-79
2021/07/03 10:12:35;;;;;;;15.07;10.85;;;;;;;;;;4939015;28;20566;-79
2021/07/03 10:15:02;;;;;;;17.08;10.70;;;;;;;;;;4941052;28;20130;-81
2021/07/03 10:17:30;;;;;;;12.30;9.63;;;;;;;;;;4934692;28;20063;-81
2021/07/03 10:19:57;;;;;;;15.05;9.20;;;;;;;;;;4934833;28;20070;-81
2021/07/03 10:22:27;;;;;;;13.98;9.50;;;;;;;;;;4957291;28;20131;-81
2021/07/03 10:24:55;;;;;;;14.05;9.82;;;;;;;;;;4941742;28;20055;-81
2021/07/03 10:27:22;;;;;;;12.65;10.15;;;;;;;;;;4940023;28;20646;-81
2021/07/03 10:29:49;;;;;;;14.15;10.15;;;;;;;;;;4937057;28;20067;-79
2021/07/03 10:32:19;;;;;;;14.68;11.27;;;;;;;;;;4936853;28;20055;-79
2021/07/03 10:34:49;;;;;;;14.63;9.68;;;;;;;;;;4939951;28;20051;-80
2021/07/03 10:37:30;;;;;;;13.00;10.50;;;;;;;;;;4938293;28;20150;-80
2021/07/03 10:39:57;;;;;;;11.75;9.88;;;;;;;;;;4940652;28;20511;-82
2021/07/03 10:42:30;;;;;;;12.15;9.65;;;;;;;;;;4947032;28;20059;-81
2021/07/03 10:45:10;;;;;;;13.13;9.20;;;;;;;;;;4943301;28;20122;-81
2021/07/03 10:47:36;;;;;;;13.73;10.13;;;;;;;;;;4953654;28;20137;-82
2021/07/03 10:50:17;;;;;;;11.07;9.77;;;;;;;;;;4939326;28;20067;-81
2021/07/03 10:52:48;;;;;;;11.98;10.18;;;;;;;;;;4929387;28;20098;-82
2021/07/03 10:55:25;;;;;;;13.50;9.90;;;;;;;;;;4944544;28;21344;-81
2021/07/03 10:57:52;;;;;;;11.55;9.35;;;;;;;;;;4943400;28;20071;-80
2021/07/03 11:00:22;;;;;;;12.15;9.52;;;;;;;;;;4944007;28;20051;-81
2021/07/03 11:02:48;;;;;;;12.83;10.00;;;;;;;;;;4936893;28;20170;-81
2021/07/03 11:05:18;;;;;;;11.30;9.27;;;;;;;;;;4940620;28;20067;-81
2021/07/03 11:07:46;;;;;;;11.68;9.20;;;;;;;;;;4942721;28;20073;-80
2021/07/03 11:10:31;;;;;;;11.77;9.52;;;;;;;;;;4935690;28;21234;-81
2021/07/03 11:12:59;;;;;;;12.18;9.70;;;;;;;;;;4934942;28;20066;-81
2021/07/03 11:15:27;;;;;;;16.25;9.75;;;;;;;;;;4947447;28;20027;-81
2021/07/03 11:17:57;;;;;;;13.27;9.63;;;;;;;;;;4946146;28;20196;-82
2021/07/03 11:20:27;;;;;;;13.05;9.85;;;;;;;;;;4950984;28;20114;-82
2021/07/03 11:22:56;;;;;;;15.10;10.50;;;;;;;;;;4951232;28;20027;-81
2021/07/03 11:25:31;;;;;;;11.15;9.93;;;;;;;;;;4951789;28;20066;-81
2021/07/03 11:28:14;;;;;;;11.68;9.35;;;;;;;;;;4948946;28;20035;-81
2021/07/03 11:30:41;;;;;;;12.80;10.38;;;;;;;;;;4975264;28;20091;-80
2021/07/03 11:33:09;;;;;;;13.02;9.82;;;;;;;;;;4941923;28;20067;-80
2021/07/03 11:35:36;;;;;;;11.68;9.55;;;;;;;;;;4952349;28;20070;-80
2021/07/03 11:38:03;;;;;;;11.43;9.50;;;;;;;;;;4948257;28;20063;-80
2021/07/03 11:40:30;;;;;;;12.15;10.10;;;;;;;;;;4945340;28;20066;-80
2021/07/03 11:42:58;;;;;;;12.52;9.30;;;;;;;;;;4925892;28;20424;-80
2021/07/03 11:45:29;;;;;;;11.35;9.95;;;;;;;;;;4946382;28;20066;-79
2021/07/03 11:48:03;;;;;;;11.88;9.77;;;;;;;;;;4953488;28;20051;-80
2021/07/03 11:50:31;;;;;;;11.52;10.00;;;;;;;;;;4944886;28;20507;-79
2021/07/03 11:52:59;;;;;;;12.27;9.90;;;;;;;;;;4945780;28;20039;-80
2021/07/03 11:55:28;;;;;;;12.30;10.45;;;;;;;;;;4949858;28;20407;-79
2021/07/03 11:57:55;;;;;;;13.07;10.18;;;;;;;;;;4945343;28;20063;-80
2021/07/03 12:00:25;;;;;;;11.85;10.02;;;;;;;;;;4941877;28;20459;-80
2021/07/03 12:02:57;;;;;;;11.17;9.60;;;;;;;;;;4945567;28;20125;-81
2021/07/03 12:05:28;;;;;;;12.40;9.88;;;;;;;;;;4943656;28;20472;-81
2021/07/03 12:07:57;;;;;;;12.63;10.20;;;;;;;;;;4945505;28;20039;-80
2021/07/03 12:10:31;;;;;;;11.98;10.15;;;;;;;;;;4942745;28;20119;-81
2021/07/03 12:12:58;;;;;;;11.23;9.82;;;;;;;;;;4945030;28;20055;-82
2021/07/03 12:15:27;;;;;;;12.30;9.57;;;;;;;;;;4944469;28;20122;-82
2021/07/03 12:17:56;;;;;;;13.00;10.05;;;;;;;;;;4938555;28;20043;-81
2021/07/03 12:20:22;;;;;;;11.15;8.63;;;;;;;;;;4942894;28;20040;-81
2021/07/03 12:22:56;;;;;;;11.80;10.40;;;;;;;;;;4947456;28;20532;-82
2021/07/03 12:25:23;;;;;;;12.68;10.45;;;;;;;;;;4947398;28;20036;-83
2021/07/03 12:27:58;;;;;;;12.40;10.55;;;;;;;;;;4945688;28;20043;-81
2021/07/03 12:30:26;;;;;;;11.57;9.77;;;;;;;;;;4941806;28;20039;-81
2021/07/03 12:33:03;;;;;;;11.57;9.70;;;;;;;;;;4940362;28;20567;-82
2021/07/03 12:35:33;;;;;;;12.43;10.05;;;;;;;;;;4943507;28;20127;-82
2021/07/03 12:37:59;;;;;;;11.90;10.57;;;;;;;;;;4941351;28;20055;-83
2021/07/03 12:40:31;;;;;;;14.27;10.55;;;;;;;;;;4945534;28;20114;-83
2021/07/03 12:42:59;;;;;;;12.57;10.63;;;;;;;;;;4947738;28;20570;-82
2021/07/03 12:45:25;;;;;;;12.57;10.18;;;;;;;;;;4941208;28;20067;-82
2021/07/03 12:48:02;;;;;;;11.80;10.27;;;;;;;;;;4944882;28;20054;-81
2021/07/03 12:50:29;;;;;;;13.60;9.65;;;;;;;;;;4941495;28;20162;-81
2021/07/03 12:53:02;;;;;;;11.60;9.98;;;;;;;;;;4955478;28;20125;-81
2021/07/03 12:55:55;;;;;;;12.02;9.80;;;;;;;;;;4949721;28;20038;-82
2021/07/03 12:58:25;;;;;;;11.98;10.30;;;;;;;;;;4943248;28;22224;-82
2021/07/03 13:00:53;;;;;;;12.88;10.43;;;;;;;;;;4942157;28;20069;-81
2021/07/03 13:03:20;;;;;;;12.30;10.30;;;;;;;;;;4941672;28;20094;-81
2021/07/03 13:06:13;;;;;;;13.57;10.10;;;;;;;;;;4937388;28;20027;-82
2021/07/03 13:08:40;;;;;;;12.10;10.68;;;;;;;;;;4943005;28;20270;-81
2021/07/03 13:11:07;;;;;;;12.63;10.00;;;;;;;;;;4943617;28;20652;-82
2021/07/03 13:13:33;;;;;;;12.55;10.43;;;;;;;;;;4947465;28;20055;-82
2021/07/03 13:15:59;;;;;;;13.60;10.35;;;;;;;;;;4946728;28;20134;-82
2021/07/03 13:18:26;;;;;;;14.88;10.40;;;;;;;;;;4947098;28;20515;-83
2021/07/03 13:20:52;;;;;;;11.85;10.45;;;;;;;;;;4944401;28;20122;-82
2021/07/03 13:23:19;;;;;;;12.15;10.88;;;;;;;;;;4930518;29;20058;-82
2021/07/03 13:25:45;;;;;;;13.25;10.10;;;;;;;;;;4946398;28;20518;-81
2021/07/03 13:28:12;;;;;;;12.05;10.48;;;;;;;;;;4936758;28;20066;-81
2021/07/03 13:30:39;;;;;;;11.30;10.05;;;;;;;;;;4944272;28;20432;-81
2021/07/03 13:33:05;;;;;;;12.60;9.88;;;;;;;;;;4942068;28;20078;-80
2021/07/03 13:35:32;;;;;;;11.82;9.98;;;;;;;;;;4942589;28;20070;-80
2021/07/03 13:37:58;;;;;;;11.85;10.35;;;;;;;;;;4944617;28;20054;-81
2021/07/03 13:40:25;;;;;;;12.35;9.93;;;;;;;;;;4945484;28;20062;-81
2021/07/03 13:42:51;;;;;;;13.23;10.15;;;;;;;;;;4940960;28;20543;-81
2021/07/03 13:45:18;;;;;;;12.77;10.10;;;;;;;;;;4948718;28;20448;-80
2021/07/03 13:47:44;;;;;;;12.48;9.75;;;;;;;;;;4948056;28;20582;-81
2021/07/03 13:50:11;;;;;;;13.90;10.73;;;;;;;;;;4942868;28;20173;-81
2021/07/03 13:52:37;;;;;;;12.00;10.32;;;;;;;;;;4943976;28;20082;-81
2021/07/03 13:55:04;;;;;;;11.25;10.05;;;;;;;;;;4941855;28;20132;-82
2021/07/03 13:57:31;;;;;;;11.77;10.10;;;;;;;;;;4940371;28;20063;-82
2021/07/03 13:59:57;;;;;;;11.45;10.05;;;;;;;;;;4947577;28;20122;-81
2021/07/03 14:02:23;;;;;;;12.88;9.85;;;;;;;;;;4948250;28;20500;-81
2021/07/03 14:04:50;;;;;;;11.82;10.27;;;;;;;;;;4944571;28;20035;-80
2021/07/03 14:07:16;;;;;;;10.15;8.98;;;;;;;;;;4947922;28;20058;-80
2021/07/03 14:09:43;;;;;;;10.57;9.45;;;;;;;;;;4945260;28;20082;-82
2021/07/03 14:12:09;;;;;;;10.60;9.50;;;;;;;;;;4944296;28;20078;-80
2021/07/03 14:14:38;;;;;;;11.48;9.55;;;;;;;;;;4945290;28;20078;-80
2021/07/03 14:17:05;;;;;;;11.73;9.30;;;;;;;;;;4940933;28;20062;-81
2021/07/03 14:19:31;;;;;;;10.30;9.20;;;;;;;;;;4953485;28;20059;-81
2021/07/03 14:21:58;;;;;;;10.75;9.25;;;;;;;;;;4936150;28;20067;-81
2021/07/03 14:24:24;;;;;;;9.55;7.82;;;;;;;;;;4949244;28;20059;-82
2021/07/03 14:26:50;;;;;;;10.40;8.52;;;;;;;;;;4947792;28;20063;-81
2021/07/03 14:29:18;;;;;;;10.45;9.35;;;;;;;;;;4947026;28;20053;-81
2021/07/03 14:31:45;;;;;;;12.88;9.48;;;;;;;;;;4946354;28;20074;-81
2021/07/03 14:34:11;;;;;;;10.13;9.05;;;;;;;;;;4944508;28;20082;-81
2021/07/03 14:36:38;;;;;;;9.75;8.75;;;;;;;;;;4944583;28;20070;-81
2021/07/03 14:39:05;;;;;;;11.00;7.78;;;;;;;;;;4943597;28;20448;-81